createdAt,value
2022-09-06T00:01:16.277Z,10.35
2022-09-06T00:03:44.893Z,11.55
2022-09-06T00:06:19.006Z,13.52
2022-09-06T00:08:48.063Z,12.33
2022-09-06T00:11:16.822Z,13.25
2022-09-06T00:13:45.096Z,10.60
2022-09-06T00:16:18.920Z,9.98
2022-09-06T00:18:46.874Z,10.57
2022-09-06T00:21:25.574Z,8.73
2022-09-06T00:23:53.752Z,9.52
2022-09-06T00:26:22.427Z,10.60
2022-09-06T00:28:50.150Z,13.57
2022-09-06T00:31:24.579Z,12.00
2022-09-06T00:33:52.724Z,12.70
2022-09-06T00:36:21.535Z,9.60
2022-09-06T00:38:49.496Z,10.23
2022-09-06T00:41:17.566Z,9.75
2022-09-06T00:43:45.184Z,9.30
2022-09-06T00:46:27.055Z,9.40
2022-09-06T00:49:31.362Z,13.20
2022-09-06T00:52:13.751Z,11.45
2022-09-06T00:54:42.340Z,12.35
2022-09-06T00:57:10.684Z,11.43
2022-09-06T00:59:40.133Z,11.20
2022-09-06T01:02:09.538Z,10.70
2022-09-06T01:04:40.526Z,10.45
2022-09-06T01:07:14.054Z,11.07
2022-09-06T01:09:53.838Z,9.15
2022-09-06T01:12:31.195Z,11.07
2022-09-06T01:15:06.100Z,10.52
2022-09-06T01:17:52.521Z,10.43
2022-09-06T01:20:29.261Z,10.48
2022-09-06T01:23:15.161Z,11.98
2022-09-06T01:25:48.648Z,12.40
2022-09-06T01:28:22.253Z,13.10
2022-09-06T01:31:03.155Z,12.48
2022-09-06T01:33:54.436Z,11.95
2022-09-06T01:36:27.101Z,10.55
2022-09-06T01:38:54.689Z,11.00
2022-09-06T01:41:22.229Z,12.18
2022-09-06T01:43:52.679Z,9.73
2022-09-06T01:46:39.937Z,13.95
2022-09-06T01:49:20.599Z,11.10
2022-09-06T01:52:06.589Z,10.87
2022-09-06T01:54:40.101Z,13.70
2022-09-06T01:57:13.982Z,13.00
2022-09-06T02:00:03.885Z,11.25
2022-09-06T02:02:51.647Z,11.32
2022-09-06T02:05:35.067Z,10.63
2022-09-06T02:08:11.880Z,13.38
2022-09-06T02:10:43.361Z,12.38
2022-09-06T02:13:14.024Z,14.13
2022-09-06T02:15:54.348Z,13.18
2022-09-06T02:18:28.248Z,11.17
2022-09-06T02:20:59.073Z,13.55
2022-09-06T02:23:30.173Z,13.38
2022-09-06T02:26:04.556Z,11.50
2022-09-06T02:28:32.406Z,10.18
2022-09-06T02:31:04.499Z,13.13
2022-09-06T02:33:35.815Z,12.98
2022-09-06T02:36:07.420Z,14.00
2022-09-06T02:38:37.939Z,11.68
2022-09-06T02:41:06.552Z,13.27
2022-09-06T02:43:34.423Z,11.27
2022-09-06T02:46:02.284Z,11.45
2022-09-06T02:48:30.090Z,15.35
2022-09-06T02:50:57.726Z,13.60
2022-09-06T02:53:25.252Z,11.52
2022-09-06T02:55:53.311Z,12.17
2022-09-06T02:58:21.048Z,13.70
2022-09-06T03:00:51.280Z,12.02
2022-09-06T03:03:22.590Z,10.57
2022-09-06T03:05:51.641Z,11.05
2022-09-06T03:08:21.253Z,11.73
2022-09-06T03:10:54.272Z,10.23
2022-09-06T03:13:23.391Z,10.15
2022-09-06T03:15:57.216Z,10.13
2022-09-06T03:18:26.139Z,10.10
2022-09-06T03:20:56.178Z,8.07
2022-09-06T03:23:26.479Z,9.68
2022-09-06T03:25:54.364Z,9.13
2022-09-06T03:28:23.298Z,12.25
2022-09-06T03:30:51.985Z,10.10
2022-09-06T03:33:20.639Z,13.37
2022-09-06T03:35:56.413Z,12.05
2022-09-06T03:38:25.969Z,12.23
2022-09-06T03:40:54.153Z,10.65
2022-09-06T03:43:23.476Z,12.95
2022-09-06T03:45:53.578Z,9.83
2022-09-06T03:48:22.816Z,10.77
2022-09-06T03:50:54.278Z,13.98
2022-09-06T03:53:23.349Z,13.32
2022-09-06T03:55:53.258Z,10.80
2022-09-06T03:58:23.698Z,12.43
2022-09-06T04:01:04.568Z,12.60
2022-09-06T04:03:33.133Z,14.02
2022-09-06T04:06:01.120Z,14.18
2022-09-06T04:08:29.018Z,12.82
2022-09-06T04:10:57.835Z,16.77
2022-09-06T04:13:27.166Z,13.75
2022-09-06T04:15:55.230Z,14.13
2022-09-06T04:18:23.299Z,15.73
2022-09-06T04:20:52.993Z,16.40
2022-09-06T04:23:20.957Z,15.40
2022-09-06T04:25:50.191Z,16.90
2022-09-06T04:28:18.718Z,14.05
2022-09-06T04:30:55.546Z,15.05
2022-09-06T04:33:26.451Z,12.15
2022-09-06T04:35:56.984Z,14.03
2022-09-06T04:38:25.858Z,14.85
2022-09-06T04:40:55.580Z,11.20
2022-09-06T04:43:23.708Z,14.20
2022-09-06T04:45:51.638Z,12.48
2022-09-06T04:48:19.500Z,16.50
2022-09-06T04:50:47.065Z,13.27
2022-09-06T04:53:14.674Z,11.35
2022-09-06T04:55:42.175Z,15.45
2022-09-06T04:58:09.737Z,13.02
2022-09-06T05:00:38.868Z,11.93
2022-09-06T05:03:06.796Z,10.25
2022-09-06T05:05:35.894Z,13.65
2022-09-06T05:08:03.634Z,10.05
2022-09-06T05:10:31.120Z,13.45
2022-09-06T05:12:58.718Z,13.73
2022-09-06T05:15:26.310Z,10.75
2022-09-06T05:17:53.883Z,14.27
2022-09-06T05:20:21.816Z,16.17
2022-09-06T05:22:54.395Z,16.05
2022-09-06T05:25:22.206Z,16.07
2022-09-06T05:27:49.758Z,11.15
2022-09-06T05:30:18.439Z,11.30
2022-09-06T05:32:45.944Z,12.55
2022-09-06T05:35:13.632Z,11.32
2022-09-06T05:37:41.118Z,8.93
2022-09-06T05:40:09.300Z,13.05
2022-09-06T05:42:37.103Z,11.60
2022-09-06T05:45:06.866Z,13.38
2022-09-06T05:47:35.611Z,12.95
2022-09-06T05:50:03.746Z,11.07
2022-09-06T05:52:40.498Z,13.20
2022-09-06T05:55:16.150Z,11.38
2022-09-06T05:57:46.168Z,12.57
2022-09-06T06:00:14.230Z,12.52
2022-09-06T06:02:42.083Z,13.40
2022-09-06T06:05:09.865Z,12.82
2022-09-06T06:07:37.426Z,12.95
2022-09-06T06:10:05.413Z,17.00
2022-09-06T06:12:33.448Z,15.00
2022-09-06T06:15:01.011Z,14.73
2022-09-06T06:17:28.557Z,13.25
2022-09-06T06:19:56.092Z,19.50
2022-09-06T06:22:23.596Z,14.18
2022-09-06T06:24:51.174Z,14.23
2022-09-06T06:27:18.797Z,14.23
2022-09-06T06:29:46.341Z,16.10
2022-09-06T06:32:13.955Z,16.58
2022-09-06T06:34:41.547Z,15.98
2022-09-06T06:37:09.160Z,15.10
2022-09-06T06:39:37.169Z,15.50
2022-09-06T06:42:04.916Z,12.80
2022-09-06T06:44:46.792Z,12.57
2022-09-06T06:47:14.441Z,14.13
2022-09-06T06:49:42.014Z,16.38
2022-09-06T06:52:09.611Z,14.03
2022-09-06T06:54:37.603Z,17.02
2022-09-06T06:57:05.507Z,16.95
2022-09-06T06:59:33.243Z,12.73
2022-09-06T07:02:01.206Z,16.08
2022-09-06T07:04:28.868Z,16.07
2022-09-06T07:12:32.463Z,13.35
2022-09-06T07:15:00.310Z,12.13
2022-09-06T07:17:28.402Z,14.90
2022-09-06T07:22:39.738Z,13.50
2022-09-06T07:25:09.132Z,15.25
2022-09-06T07:30:11.910Z,12.30
2022-09-06T07:32:39.474Z,12.32
2022-09-06T07:35:07.604Z,13.07
2022-09-06T07:37:35.552Z,11.02
2022-09-06T07:40:04.393Z,11.63
2022-09-06T07:42:36.559Z,13.13
2022-09-06T07:45:05.516Z,14.30
2022-09-06T07:53:13.969Z,10.55
2022-09-06T07:55:43.416Z,10.17
2022-09-06T07:58:11.216Z,10.90
2022-09-06T08:00:41.326Z,8.60
2022-09-06T08:03:09.277Z,9.75
2022-09-06T08:11:14.195Z,9.75
2022-09-06T08:13:42.890Z,10.48
2022-09-06T08:16:12.549Z,8.80
2022-09-06T08:18:40.295Z,10.18
2022-09-06T08:21:13.424Z,11.10
2022-09-06T08:23:44.968Z,7.38
2022-09-06T08:26:12.973Z,8.50
2022-09-06T08:28:40.506Z,6.40
2022-09-06T08:31:10.211Z,8.45
2022-09-06T08:33:38.888Z,6.70
2022-09-06T08:36:07.335Z,8.45
2022-09-06T08:38:35.776Z,7.43
2022-09-06T08:41:44.721Z,8.43
2022-09-06T08:47:21.961Z,8.60
2022-09-06T08:49:54.953Z,10.38
2022-09-06T08:56:13.571Z,6.55
2022-09-06T08:58:44.567Z,9.15
2022-09-06T09:01:18.447Z,7.70
2022-09-06T09:03:47.188Z,9.00
2022-09-06T09:06:14.730Z,11.18
2022-09-06T09:09:14.648Z,8.13
2022-09-06T09:11:49.961Z,5.80
2022-09-06T09:14:17.651Z,5.43
2022-09-06T09:16:45.418Z,5.15
2022-09-06T09:19:13.618Z,7.28
2022-09-06T09:21:41.768Z,4.28
2022-09-06T09:24:12.330Z,5.45
2022-09-06T09:26:58.199Z,4.73
2022-09-06T09:29:29.401Z,8.23
2022-09-06T09:31:58.233Z,5.75
2022-09-06T09:34:33.985Z,4.72
2022-09-06T09:40:34.878Z,4.13
2022-09-06T09:43:30.883Z,6.45
2022-09-06T09:46:33.246Z,3.45
2022-09-06T09:49:28.727Z,4.00
2022-09-06T09:52:13.634Z,3.83
2022-09-06T09:54:44.569Z,3.10
2022-09-06T09:57:17.877Z,3.53
2022-09-06T09:59:58.387Z,6.88
2022-09-06T10:02:31.240Z,4.38
2022-09-06T10:05:04.924Z,5.03
2022-09-06T10:07:34.211Z,11.77
2022-09-06T10:10:11.167Z,5.57
2022-09-06T10:12:41.580Z,5.75
2022-09-06T10:15:33.082Z,6.00
2022-09-06T10:18:00.942Z,5.95
2022-09-06T10:20:38.406Z,5.10
2022-09-06T10:23:12.061Z,4.40
2022-09-06T10:25:48.904Z,5.22
2022-09-06T10:28:29.782Z,4.07
2022-09-06T10:31:22.418Z,4.65
2022-09-06T10:34:11.758Z,4.93
2022-09-06T10:36:44.579Z,5.90
2022-09-06T10:39:33.771Z,4.20
2022-09-06T10:42:22.403Z,7.18
2022-09-06T10:45:18.848Z,4.55
2022-09-06T10:47:49.390Z,6.53
2022-09-06T10:50:17.515Z,6.88
2022-09-06T10:52:48.866Z,4.32
2022-09-06T10:55:18.783Z,3.83
2022-09-06T11:00:47.487Z,4.53
2022-09-06T11:06:31.711Z,7.22
2022-09-06T11:09:17.363Z,4.40
2022-09-06T11:11:47.765Z,3.50
2022-09-06T11:14:15.957Z,4.27
2022-09-06T11:16:52.012Z,4.07
2022-09-06T11:19:28.674Z,3.40
2022-09-06T11:22:10.682Z,5.25
2022-09-06T11:24:49.353Z,6.43
2022-09-06T11:27:32.260Z,4.60
2022-09-06T11:30:01.761Z,4.28
2022-09-06T11:32:35.043Z,6.22
2022-09-06T11:35:20.606Z,4.25
2022-09-06T11:37:57.385Z,5.63
2022-09-06T11:40:36.612Z,5.90
2022-09-06T11:43:04.392Z,4.45
2022-09-06T11:45:45.922Z,5.05
2022-09-06T11:49:06.148Z,4.05
2022-09-06T11:51:38.032Z,5.72
2022-09-06T11:54:33.248Z,3.17
2022-09-06T11:57:15.410Z,6.00
2022-09-06T11:59:46.012Z,4.50
2022-09-06T12:02:32.528Z,4.80
2022-09-06T12:05:07.379Z,4.47
2022-09-06T12:07:54.629Z,4.77
2022-09-06T12:10:31.364Z,4.40
2022-09-06T12:12:59.032Z,3.58
2022-09-06T12:15:32.974Z,6.70
2022-09-06T12:18:01.047Z,3.60
2022-09-06T12:20:54.428Z,4.57
2022-09-06T12:23:37.198Z,5.80
2022-09-06T12:26:07.008Z,3.60
2022-09-06T12:29:09.492Z,4.90
2022-09-06T12:31:43.651Z,7.93
2022-09-06T12:34:21.319Z,3.97
2022-09-06T12:37:01.255Z,4.13
2022-09-06T12:39:28.937Z,3.70
2022-09-06T12:42:01.442Z,4.47
2022-09-06T12:44:36.382Z,4.38
2022-09-06T12:47:14.400Z,5.07
2022-09-06T12:49:41.967Z,4.45
2022-09-06T12:52:12.457Z,4.45
2022-09-06T12:54:49.461Z,2.95
2022-09-06T12:57:23.586Z,4.10
2022-09-06T12:59:56.951Z,3.13
2022-09-06T13:02:35.588Z,4.40
2022-09-06T13:05:09.744Z,4.65
2022-09-06T13:07:45.121Z,4.20
2022-09-06T13:10:19.469Z,4.22
2022-09-06T13:12:51.114Z,3.67
2022-09-06T13:15:22.824Z,5.03
2022-09-06T13:17:50.632Z,4.05
2022-09-06T13:20:21.088Z,3.25
2022-09-06T13:22:51.304Z,4.13
2022-09-06T13:25:21.555Z,3.70
2022-09-06T13:27:51.509Z,3.03
2022-09-06T13:30:42.516Z,5.18
2022-09-06T13:33:41.194Z,3.60
2022-09-06T13:36:11.477Z,2.97
2022-09-06T13:38:39.048Z,3.37
2022-09-06T13:41:41.344Z,6.10
2022-09-06T13:44:11.665Z,4.03
2022-09-06T13:46:39.245Z,4.30
2022-09-06T13:49:07.632Z,5.07
2022-09-06T13:51:38.015Z,5.67
2022-09-06T13:54:10.598Z,4.05
2022-09-06T13:56:39.397Z,5.18
2022-09-06T13:59:09.885Z,5.72
2022-09-06T14:01:39.437Z,4.43
2022-09-06T14:04:07.696Z,4.07
2022-09-06T14:06:37.007Z,5.70
2022-09-06T14:09:07.636Z,3.58
2022-09-06T14:11:36.248Z,6.50
2022-09-06T14:14:04.353Z,4.63
2022-09-06T14:16:33.899Z,8.30
2022-09-06T14:19:01.795Z,5.50
2022-09-06T14:21:29.391Z,5.30
2022-09-06T14:24:03.336Z,4.90
2022-09-06T14:26:33.285Z,5.82
2022-09-06T14:29:01.034Z,6.70
2022-09-06T14:31:29.810Z,5.28
2022-09-06T14:33:58.146Z,7.55
2022-09-06T14:36:29.326Z,5.38
2022-09-06T14:38:58.679Z,11.30
2022-09-06T14:41:26.746Z,7.63
2022-09-06T14:43:57.276Z,9.68
2022-09-06T14:46:26.827Z,5.05
2022-09-06T14:49:00.855Z,8.95
2022-09-06T14:51:30.256Z,4.97
2022-09-06T14:54:02.026Z,5.90
2022-09-06T14:56:30.458Z,5.82
2022-09-06T14:58:59.963Z,4.95
2022-09-06T15:01:33.018Z,5.45
2022-09-06T15:04:10.133Z,5.60
2022-09-06T15:06:40.771Z,5.73
2022-09-06T15:09:11.492Z,7.45
2022-09-06T15:11:48.916Z,6.55
2022-09-06T15:14:22.542Z,6.50
2022-09-06T15:16:55.953Z,5.32
2022-09-06T15:19:25.107Z,5.60
2022-09-06T15:21:55.304Z,5.47
2022-09-06T15:24:23.341Z,4.10
2022-09-06T15:26:51.091Z,4.75
2022-09-06T15:29:20.472Z,5.07
2022-09-06T15:31:50.635Z,3.33
2022-09-06T15:34:20.196Z,4.47
2022-09-06T15:36:47.834Z,5.00
2022-09-06T15:39:15.545Z,5.38
2022-09-06T15:41:43.207Z,3.17
2022-09-06T15:44:13.106Z,2.80
2022-09-06T15:46:43.753Z,3.78
2022-09-06T15:49:14.772Z,3.45
2022-09-06T15:51:42.936Z,2.00
2022-09-06T15:54:12.056Z,3.38
2022-09-06T15:56:39.858Z,3.83
2022-09-06T15:59:07.966Z,3.80
2022-09-06T16:01:35.738Z,3.08
2022-09-06T16:04:06.233Z,3.75
2022-09-06T16:06:37.785Z,4.10
2022-09-06T16:09:17.748Z,3.33
2022-09-06T16:11:45.685Z,3.10
2022-09-06T16:14:15.474Z,3.55
2022-09-06T16:16:43.570Z,3.67
2022-09-06T16:19:12.740Z,3.03
2022-09-06T16:21:43.775Z,3.13
2022-09-06T16:24:13.325Z,4.40
2022-09-06T16:26:43.838Z,3.08
2022-09-06T16:29:13.382Z,3.80
2022-09-06T16:31:41.347Z,5.03
2022-09-06T16:34:10.312Z,3.70
2022-09-06T16:36:38.378Z,3.63
2022-09-06T16:39:07.351Z,2.72
2022-09-06T16:41:40.664Z,3.63
2022-09-06T16:44:10.277Z,3.60
2022-09-06T16:46:40.264Z,3.93
2022-09-06T16:49:08.599Z,4.82
2022-09-06T16:51:36.649Z,4.70
2022-09-06T16:54:04.600Z,3.15
2022-09-06T16:56:35.819Z,5.03
2022-09-06T16:59:06.554Z,3.60
2022-09-06T17:01:35.275Z,3.08
2022-09-06T17:04:04.140Z,2.55
2022-09-06T17:06:33.285Z,3.55
2022-09-06T17:09:00.842Z,2.50
2022-09-06T17:11:29.302Z,2.67
2022-09-06T17:13:58.193Z,3.42
2022-09-06T17:16:44.642Z,2.03
2022-09-06T17:19:14.017Z,3.03
2022-09-06T17:21:41.942Z,3.40
2022-09-06T17:24:09.727Z,2.87
2022-09-06T17:26:39.397Z,4.15
2022-09-06T17:29:07.786Z,5.28
2022-09-06T17:31:36.919Z,5.65
2022-09-06T17:34:05.379Z,5.38
2022-09-06T17:36:34.153Z,6.40
2022-09-06T17:39:08.199Z,5.80
2022-09-06T17:41:41.756Z,5.43
2022-09-06T17:44:11.663Z,7.13
2022-09-06T17:46:47.949Z,5.10
2022-09-06T17:49:28.338Z,5.93
2022-09-06T17:51:56.712Z,7.45
2022-09-06T17:54:24.592Z,7.22
2022-09-06T17:56:52.426Z,5.20
2022-09-06T17:59:20.138Z,6.25
2022-09-06T18:01:47.729Z,5.60
2022-09-06T18:04:16.134Z,7.03
2022-09-06T18:06:46.387Z,6.35
2022-09-06T18:09:17.668Z,5.45
2022-09-06T18:11:46.865Z,7.32
2022-09-06T18:14:17.562Z,4.83
2022-09-06T18:16:47.473Z,5.68
2022-09-06T18:19:16.324Z,7.43
2022-09-06T18:21:44.207Z,6.47
2022-09-06T18:24:13.864Z,6.15
2022-09-06T18:26:43.109Z,7.17
2022-09-06T18:29:16.771Z,8.18
2022-09-06T18:31:44.933Z,8.88
2022-09-06T18:34:12.743Z,6.93
2022-09-06T18:36:40.835Z,6.43
2022-09-06T18:39:08.745Z,5.93
2022-09-06T18:41:55.379Z,7.55
2022-09-06T18:44:23.146Z,6.70
2022-09-06T18:46:50.785Z,7.50
2022-09-06T18:49:18.513Z,7.47
2022-09-06T18:51:46.574Z,6.80
2022-09-06T18:54:14.778Z,6.45
2022-09-06T18:56:44.925Z,5.97
2022-09-06T18:59:13.961Z,5.13
2022-09-06T19:01:43.122Z,6.40
2022-09-06T19:04:12.280Z,6.70
2022-09-06T19:06:43.621Z,6.85
2022-09-06T19:09:14.389Z,5.25
2022-09-06T19:11:43.512Z,5.78
2022-09-06T19:14:11.640Z,6.47
2022-09-06T19:16:39.330Z,4.93
2022-09-06T19:19:09.006Z,6.65
2022-09-06T19:21:41.457Z,5.03
2022-09-06T19:24:12.994Z,4.35
2022-09-06T19:26:43.467Z,5.53
2022-09-06T19:29:18.875Z,5.17
2022-09-06T19:31:47.509Z,5.40
2022-09-06T19:34:16.233Z,4.15
2022-09-06T19:36:44.971Z,5.75
2022-09-06T19:39:14.963Z,4.78
2022-09-06T19:41:45.215Z,5.10
2022-09-06T19:44:14.713Z,5.13
2022-09-06T19:46:46.132Z,6.03
2022-09-06T19:49:19.682Z,7.53
2022-09-06T19:51:48.985Z,5.97
2022-09-06T19:54:17.390Z,6.40
2022-09-06T19:56:46.033Z,8.98
2022-09-06T19:59:14.805Z,8.32
2022-09-06T20:01:44.642Z,8.23
2022-09-06T20:04:13.493Z,10.18
2022-09-06T20:06:41.297Z,9.33
2022-09-06T20:09:10.734Z,10.80
2022-09-06T20:11:40.177Z,9.02
2022-09-06T20:14:08.640Z,8.75
2022-09-06T20:16:41.131Z,7.97
2022-09-06T20:19:10.788Z,8.37
2022-09-06T20:21:38.387Z,8.68
2022-09-06T20:24:06.197Z,10.60
2022-09-06T20:26:33.805Z,9.55
2022-09-06T20:29:03.220Z,10.32
2022-09-06T20:31:32.856Z,7.87
2022-09-06T20:34:02.070Z,9.45
2022-09-06T20:36:30.289Z,10.27
2022-09-06T20:38:57.904Z,12.82
2022-09-06T20:41:27.158Z,10.10
2022-09-06T20:43:59.598Z,13.57
2022-09-06T20:46:29.845Z,18.92
2022-09-06T20:48:59.888Z,17.50
2022-09-06T20:51:27.844Z,16.35
2022-09-06T20:53:58.145Z,17.63
2022-09-06T20:56:31.269Z,16.90
2022-09-06T20:59:01.178Z,16.10
2022-09-06T21:01:31.185Z,16.13
2022-09-06T21:04:00.381Z,13.23
2022-09-06T21:06:30.514Z,13.23
2022-09-06T21:08:58.342Z,13.23
2022-09-06T21:11:26.591Z,13.32
2022-09-06T21:13:56.435Z,13.13
2022-09-06T21:16:26.458Z,15.85
2022-09-06T21:18:56.381Z,12.90
2022-09-06T21:21:25.577Z,12.47
2022-09-06T21:23:54.107Z,13.93
2022-09-06T21:26:22.541Z,11.98
2022-09-06T21:28:50.661Z,11.82
2022-09-06T21:31:23.967Z,12.05
2022-09-06T21:33:53.848Z,10.73
2022-09-06T21:36:29.377Z,10.82
2022-09-06T21:39:02.080Z,8.57
2022-09-06T21:41:30.460Z,9.85
2022-09-06T21:43:59.825Z,10.35
2022-09-06T21:46:33.374Z,10.40
2022-09-06T21:49:08.044Z,8.68
2022-09-06T21:51:36.506Z,11.05
2022-09-06T21:54:05.127Z,10.27
2022-09-06T21:56:36.022Z,7.88
2022-09-06T21:59:05.114Z,9.17
2022-09-06T22:01:34.775Z,7.82
2022-09-06T22:04:03.435Z,9.05
2022-09-06T22:06:32.927Z,11.27
2022-09-06T22:09:04.536Z,9.82
2022-09-06T22:11:34.272Z,9.83
2022-09-06T22:14:04.801Z,7.93
2022-09-06T22:16:34.722Z,8.50
2022-09-06T22:19:04.908Z,8.68
2022-09-06T22:21:33.727Z,11.25
2022-09-06T22:24:04.007Z,9.17
2022-09-06T22:26:33.411Z,10.10
2022-09-06T22:29:03.649Z,9.30
2022-09-06T22:31:32.910Z,12.20
2022-09-06T22:34:01.048Z,10.88
2022-09-06T22:36:28.968Z,8.40
2022-09-06T22:38:57.721Z,10.18
2022-09-06T22:41:27.252Z,11.70
2022-09-06T22:43:55.214Z,10.65
2022-09-06T22:46:23.089Z,11.13
2022-09-06T22:48:50.778Z,8.37
2022-09-06T22:51:18.338Z,10.15
2022-09-06T22:56:27.351Z,8.68
2022-09-06T22:58:54.859Z,11.52
2022-09-06T23:01:22.513Z,8.63
2022-09-06T23:03:51.237Z,11.02
2022-09-06T23:06:18.860Z,10.00
2022-09-06T23:08:46.456Z,9.88
2022-09-06T23:11:16.551Z,9.95
2022-09-06T23:13:44.823Z,10.17
2022-09-06T23:16:15.345Z,9.05
2022-09-06T23:18:43.779Z,10.35
2022-09-06T23:21:22.329Z,13.15
2022-09-06T23:23:51.931Z,13.75
2022-09-06T23:26:22.941Z,12.90
2022-09-06T23:28:56.412Z,15.27
2022-09-06T23:31:26.095Z,13.50
2022-09-06T23:33:55.499Z,14.50
2022-09-06T23:36:23.844Z,17.45
2022-09-06T23:38:51.593Z,13.40
2022-09-06T23:41:19.287Z,17.45
2022-09-06T23:43:46.864Z,17.60
2022-09-06T23:46:17.153Z,15.20
2022-09-06T23:48:44.896Z,14.13
2022-09-06T23:51:13.014Z,14.00
2022-09-06T23:53:40.714Z,17.67
2022-09-06T23:56:08.567Z,14.75
2022-09-06T23:58:36.957Z,19.38
